sensor_id;sensor_type;location;lat;lon;timestamp;pressure;altitude;pressure_sealevel;temperature;humidity
56894;BME280;43392;50.078;13.704;2023-01-27T00:00:11;97129.47;;;-0.50;90.82
56894;BME280;43392;50.078;13.704;2023-01-27T00:02:37;97125.84;;;-0.49;90.91
56894;BME280;43392;50.078;13.704;2023-01-27T00:05:04;97122.00;;;-0.46;90.82
56894;BME280;43392;50.078;13.704;2023-01-27T00:07:31;97127.06;;;-0.45;91.15
56894;BME280;43392;50.078;13.704;2023-01-27T00:09:58;97123.41;;;-0.44;90.99
56894;BME280;43392;50.078;13.704;2023-01-27T00:12:25;97125.03;;;-0.43;90.49
56894;BME280;43392;50.078;13.704;2023-01-27T00:15:12;97141.22;;;-0.46;90.97
56894;BME280;43392;50.078;13.704;2023-01-27T00:17:39;97139.78;;;-0.48;90.63
56894;BME280;43392;50.078;13.704;2023-01-27T00:20:07;97140.41;;;-0.53;90.71
56894;BME280;43392;50.078;13.704;2023-01-27T00:22:35;97140.41;;;-0.53;90.39
56894;BME280;43392;50.078;13.704;2023-01-27T00:25:19;97138.38;;;-0.57;90.90
56894;BME280;43392;50.078;13.704;2023-01-27T00:27:45;97134.75;;;-0.56;90.93
56894;BME280;43392;50.078;13.704;2023-01-27T00:30:14;97136.97;;;-0.60;90.54
56894;BME280;43392;50.078;13.704;2023-01-27T00:32:40;97138.97;;;-0.62;90.83
56894;BME280;43392;50.078;13.704;2023-01-27T00:35:24;97142.00;;;-0.65;90.68
56894;BME280;43392;50.078;13.704;2023-01-27T00:37:51;97142.44;;;-0.68;90.90
56894;BME280;43392;50.078;13.704;2023-01-27T00:40:17;97143.22;;;-0.68;90.56
56894;BME280;43392;50.078;13.704;2023-01-27T00:42:44;97144.03;;;-0.67;90.76
56894;BME280;43392;50.078;13.704;2023-01-27T00:45:11;97144.25;;;-0.69;90.64
56894;BME280;43392;50.078;13.704;2023-01-27T00:47:56;97144.03;;;-0.74;90.57
56894;BME280;43392;50.078;13.704;2023-01-27T00:50:22;97141.19;;;-0.72;90.79
56894;BME280;43392;50.078;13.704;2023-01-27T00:52:49;97134.31;;;-0.73;91.07
56894;BME280;43392;50.078;13.704;2023-01-27T00:55:17;97126.00;;;-0.70;90.78
56894;BME280;43392;50.078;13.704;2023-01-27T00:57:43;97145.25;;;-0.70;91.18
56894;BME280;43392;50.078;13.704;2023-01-27T01:00:11;97145.84;;;-0.68;90.68
56894;BME280;43392;50.078;13.704;2023-01-27T01:02:39;97152.38;;;-0.63;90.61
56894;BME280;43392;50.078;13.704;2023-01-27T01:05:08;97140.00;;;-0.63;90.88
56894;BME280;43392;50.078;13.704;2023-01-27T01:07:34;97145.66;;;-0.66;90.59
56894;BME280;43392;50.078;13.704;2023-01-27T01:10:01;97148.69;;;-0.69;90.83
56894;BME280;43392;50.078;13.704;2023-01-27T01:12:27;97161.25;;;-0.71;90.59
56894;BME280;43392;50.078;13.704;2023-01-27T01:14:54;97157.00;;;-0.72;91.12
56894;BME280;43392;50.078;13.704;2023-01-27T01:17:21;97164.66;;;-0.77;91.09
56894;BME280;43392;50.078;13.704;2023-01-27T01:19:47;97156.00;;;-0.78;90.95
56894;BME280;43392;50.078;13.704;2023-01-27T01:22:15;97148.47;;;-0.74;90.91
56894;BME280;43392;50.078;13.704;2023-01-27T01:24:42;97162.06;;;-0.71;90.98
56894;BME280;43392;50.078;13.704;2023-01-27T01:27:09;97153.34;;;-0.71;90.81
56894;BME280;43392;50.078;13.704;2023-01-27T01:29:35;97155.19;;;-0.72;91.09
56894;BME280;43392;50.078;13.704;2023-01-27T01:32:02;97154.34;;;-0.72;90.71
56894;BME280;43392;50.078;13.704;2023-01-27T01:34:28;97149.31;;;-0.74;90.58
56894;BME280;43392;50.078;13.704;2023-01-27T01:36:55;97143.22;;;-0.74;90.59
56894;BME280;43392;50.078;13.704;2023-01-27T01:39:23;97148.47;;;-0.74;90.47
56894;BME280;43392;50.078;13.704;2023-01-27T01:41:49;97153.75;;;-0.74;90.59
56894;BME280;43392;50.078;13.704;2023-01-27T01:44:18;97153.75;;;-0.74;90.79
56894;BME280;43392;50.078;13.704;2023-01-27T01:46:45;97146.84;;;-0.75;90.88
56894;BME280;43392;50.078;13.704;2023-01-27T01:49:11;97147.28;;;-0.78;90.66
56894;BME280;43392;50.078;13.704;2023-01-27T01:51:40;97149.31;;;-0.74;90.97
56894;BME280;43392;50.078;13.704;2023-01-27T01:54:10;97156.59;;;-0.76;90.58
56894;BME280;43392;50.078;13.704;2023-01-27T01:56:43;97150.91;;;-0.79;90.90
56894;BME280;43392;50.078;13.704;2023-01-27T01:59:14;97138.56;;;-0.79;90.85
56894;BME280;43392;50.078;13.704;2023-01-27T02:01:42;97147.44;;;-0.80;91.08
56894;BME280;43392;50.078;13.704;2023-01-27T02:04:14;97139.38;;;-0.78;90.77
56894;BME280;43392;50.078;13.704;2023-01-27T02:06:49;97144.63;;;-0.78;90.91
56894;BME280;43392;50.078;13.704;2023-01-27T02:09:19;97149.47;;;-0.82;90.68
56894;BME280;43392;50.078;13.704;2023-01-27T02:11:48;97144.22;;;-0.82;90.87
56894;BME280;43392;50.078;13.704;2023-01-27T02:14:16;97138.34;;;-0.84;90.83
56894;BME280;43392;50.078;13.704;2023-01-27T02:16:44;97145.63;;;-0.79;90.76
56894;BME280;43392;50.078;13.704;2023-01-27T02:19:15;97150.50;;;-0.76;90.48
56894;BME280;43392;50.078;13.704;2023-01-27T02:21:47;97150.50;;;-0.76;90.24
56894;BME280;43392;50.078;13.704;2023-01-27T02:24:15;97149.91;;;-0.78;90.23
56894;BME280;43392;50.078;13.704;2023-01-27T02:26:43;97140.75;;;-0.82;90.11
56894;BME280;43392;50.078;13.704;2023-01-27T02:29:12;97149.47;;;-0.82;90.36
56894;BME280;43392;50.078;13.704;2023-01-27T02:31:39;97128.41;;;-0.82;90.67
56894;BME280;43392;50.078;13.704;2023-01-27T02:34:08;97133.06;;;-0.77;90.42
56894;BME280;43392;50.078;13.704;2023-01-27T02:36:39;97136.53;;;-0.77;90.38
56894;BME280;43392;50.078;13.704;2023-01-27T02:39:10;97127.81;;;-0.77;90.69
56894;BME280;43392;50.078;13.704;2023-01-27T02:41:40;97125.78;;;-0.75;90.77
56894;BME280;43392;50.078;13.704;2023-01-27T02:44:09;97134.72;;;-0.76;90.19
56894;BME280;43392;50.078;13.704;2023-01-27T02:46:36;97141.19;;;-0.79;90.27
56894;BME280;43392;50.078;13.704;2023-01-27T02:49:03;97138.94;;;-0.75;90.38
56894;BME280;43392;50.078;13.704;2023-01-27T02:51:30;97139.59;;;-0.73;89.92
56894;BME280;43392;50.078;13.704;2023-01-27T02:53:57;97130.25;;;-0.76;90.31
56894;BME280;43392;50.078;13.704;2023-01-27T02:56:23;97132.47;;;-0.86;89.72
56894;BME280;43392;50.078;13.704;2023-01-27T02:58:50;97129.84;;;-0.92;89.64
56894;BME280;43392;50.078;13.704;2023-01-27T03:01:18;97130.22;;;-0.95;89.97
56894;BME280;43392;50.078;13.704;2023-01-27T03:03:45;97135.88;;;-0.98;89.64
56894;BME280;43392;50.078;13.704;2023-01-27T03:06:12;97128.97;;;-1.06;89.56
56894;BME280;43392;50.078;13.704;2023-01-27T03:08:39;97137.06;;;-1.07;89.87
56894;BME280;43392;50.078;13.704;2023-01-27T03:11:06;97128.56;;;-1.03;90.24
56894;BME280;43392;50.078;13.704;2023-01-27T03:13:33;97128.19;;;-1.00;90.04
56894;BME280;43392;50.078;13.704;2023-01-27T03:16:01;97127.16;;;-0.99;89.87
56894;BME280;43392;50.078;13.704;2023-01-27T03:18:48;97123.53;;;-1.04;89.96
56894;BME280;43392;50.078;13.704;2023-01-27T03:21:16;97134.06;;;-1.04;89.98
56894;BME280;43392;50.078;13.704;2023-01-27T03:23:42;97123.69;;;-1.12;89.87
56894;BME280;43392;50.078;13.704;2023-01-27T03:26:10;97139.88;;;-1.15;89.84
56894;BME280;43392;50.078;13.704;2023-01-27T03:28:37;97136.41;;;-1.16;90.06
56894;BME280;43392;50.078;13.704;2023-01-27T03:31:06;97139.69;;;-1.07;90.25
56894;BME280;43392;50.078;13.704;2023-01-27T03:33:33;97136.69;;;-1.04;90.14
56894;BME280;43392;50.078;13.704;2023-01-27T03:36:02;97133.03;;;-1.03;89.83
56894;BME280;43392;50.078;13.704;2023-01-27T03:38:46;97128.56;;;-1.03;89.97
56894;BME280;43392;50.078;13.704;2023-01-27T03:41:30;97131.81;;;-1.07;89.76
56894;BME280;43392;50.078;13.704;2023-01-27T03:44:14;97124.69;;;-1.13;89.72
56894;BME280;43392;50.078;13.704;2023-01-27T03:46:59;97135.41;;;-1.15;89.33
56894;BME280;43392;50.078;13.704;2023-01-27T03:49:25;97136.84;;;-1.19;89.88
56894;BME280;43392;50.078;13.704;2023-01-27T03:51:53;97133.19;;;-1.18;89.43
56894;BME280;43392;50.078;13.704;2023-01-27T03:54:20;97133.38;;;-1.19;89.75
56894;BME280;43392;50.078;13.704;2023-01-27T03:56:46;97133.38;;;-1.19;89.31
56894;BME280;43392;50.078;13.704;2023-01-27T03:59:13;97134.00;;;-1.17;89.58
56894;BME280;43392;50.078;13.704;2023-01-27T04:01:40;97115.59;;;-1.17;89.49
56894;BME280;43392;50.078;13.704;2023-01-27T04:04:08;97125.72;;;-1.14;89.21
56894;BME280;43392;50.078;13.704;2023-01-27T04:06:54;97139.88;;;-1.15;89.73
56894;BME280;43392;50.078;13.704;2023-01-27T04:09:25;97123.47;;;-1.11;89.38
56894;BME280;43392;50.078;13.704;2023-01-27T04:11:52;97127.75;;;-1.10;89.29
56894;BME280;43392;50.078;13.704;2023-01-27T04:14:22;97125.72;;;-1.08;89.50
56894;BME280;43392;50.078;13.704;2023-01-27T04:16:50;97130.00;;;-1.07;89.21
56894;BME280;43392;50.078;13.704;2023-01-27T04:19:16;97132.63;;;-1.07;88.96
56894;BME280;43392;50.078;13.704;2023-01-27T04:21:43;97133.84;;;-1.09;88.67
56894;BME280;43392;50.078;13.704;2023-01-27T04:24:12;97127.31;;;-1.13;88.60
56894;BME280;43392;50.078;13.704;2023-01-27T04:26:47;97132.38;;;-1.18;88.98
56894;BME280;43392;50.078;13.704;2023-01-27T04:29:14;97136.19;;;-1.21;89.22
56894;BME280;43392;50.078;13.704;2023-01-27T04:31:41;97138.44;;;-1.24;89.16
56894;BME280;43392;50.078;13.704;2023-01-27T04:34:09;97139.03;;;-1.22;89.12
56894;BME280;43392;50.078;13.704;2023-01-27T04:36:36;97148.13;;;-1.25;89.16
56894;BME280;43392;50.078;13.704;2023-01-27T04:39:02;97145.94;;;-1.21;89.13
56894;BME280;43392;50.078;13.704;2023-01-27T04:41:30;97146.72;;;-1.21;88.87
56894;BME280;43392;50.078;13.704;2023-01-27T04:43:57;97138.03;;;-1.21;88.96
56894;BME280;43392;50.078;13.704;2023-01-27T04:46:24;97139.66;;;-1.20;89.33
56894;BME280;43392;50.078;13.704;2023-01-27T04:48:50;97139.66;;;-1.20;89.26
56894;BME280;43392;50.078;13.704;2023-01-27T04:51:17;97147.34;;;-1.19;89.14
56894;BME280;43392;50.078;13.704;2023-01-27T04:53:43;97141.25;;;-1.26;88.91
56894;BME280;43392;50.078;13.704;2023-01-27T04:56:29;97156.22;;;-1.26;89.38
56894;BME280;43392;50.078;13.704;2023-01-27T04:58:59;97156.84;;;-1.24;89.41
56894;BME280;43392;50.078;13.704;2023-01-27T05:01:26;97151.16;;;-1.28;89.37
56894;BME280;43392;50.078;13.704;2023-01-27T05:03:53;97158.88;;;-1.26;89.32
56894;BME280;43392;50.078;13.704;2023-01-27T05:06:20;97168.78;;;-1.22;89.41
56894;BME280;43392;50.078;13.704;2023-01-27T05:08:47;97164.13;;;-1.20;89.41
56894;BME280;43392;50.078;13.704;2023-01-27T05:11:14;97165.97;;;-1.20;89.41
56894;BME280;43392;50.078;13.704;2023-01-27T05:13:41;97161.72;;;-1.21;89.46
56894;BME280;43392;50.078;13.704;2023-01-27T05:16:11;97172.25;;;-1.21;89.13
56894;BME280;43392;50.078;13.704;2023-01-27T05:18:39;97169.63;;;-1.21;89.16
56894;BME280;43392;50.078;13.704;2023-01-27T05:21:07;97170.59;;;-1.22;89.57
56894;BME280;43392;50.078;13.704;2023-01-27T05:23:36;97176.69;;;-1.22;89.10
56894;BME280;43392;50.078;13.704;2023-01-27T05:26:07;97183.16;;;-1.24;89.91
56894;BME280;43392;50.078;13.704;2023-01-27T05:28:35;97165.72;;;-1.25;89.74
56894;BME280;43392;50.078;13.704;2023-01-27T05:31:03;97182.13;;;-1.23;89.95
56894;BME280;43392;50.078;13.704;2023-01-27T05:33:31;97183.97;;;-1.24;89.76
56894;BME280;43392;50.078;13.704;2023-01-27T05:35:59;97191.66;;;-1.22;90.01
56894;BME280;43392;50.078;13.704;2023-01-27T05:38:26;97188.63;;;-1.19;90.26
56894;BME280;43392;50.078;13.704;2023-01-27T05:40:57;97198.94;;;-1.18;89.56
56894;BME280;43392;50.078;13.704;2023-01-27T05:43:25;97193.91;;;-1.19;90.00
56894;BME280;43392;50.078;13.704;2023-01-27T05:45:52;97191.66;;;-1.16;89.93
56894;BME280;43392;50.078;13.704;2023-01-27T05:48:19;97207.06;;;-1.19;89.99
56894;BME280;43392;50.078;13.704;2023-01-27T05:50:54;97198.34;;;-1.20;89.89
56894;BME280;43392;50.078;13.704;2023-01-27T05:53:21;97215.75;;;-1.19;89.50
56894;BME280;43392;50.078;13.704;2023-01-27T05:55:48;97206.44;;;-1.21;89.93
56894;BME280;43392;50.078;13.704;2023-01-27T05:58:14;97217.53;;;-0.79;94.18
56894;BME280;43392;50.078;13.704;2023-01-27T06:00:41;97199.22;;;1.48;91.76
56894;BME280;43392;50.078;13.704;2023-01-27T06:03:08;97205.09;;;1.05;86.71
56894;BME280;43392;50.078;13.704;2023-01-27T06:05:34;97204.88;;;0.36;87.27
56894;BME280;43392;50.078;13.704;2023-01-27T06:08:02;97211.38;;;-0.19;87.89
56894;BME280;43392;50.078;13.704;2023-01-27T06:10:29;97221.44;;;-0.48;89.20
56894;BME280;43392;50.078;13.704;2023-01-27T06:12:56;97213.72;;;-0.70;89.50
56894;BME280;43392;50.078;13.704;2023-01-27T06:15:23;97217.91;;;-0.82;90.20
56894;BME280;43392;50.078;13.704;2023-01-27T06:17:49;97210.59;;;-0.93;89.92
56894;BME280;43392;50.078;13.704;2023-01-27T06:20:16;97221.31;;;-0.94;90.30
56894;BME280;43392;50.078;13.704;2023-01-27T06:22:43;97222.50;;;-0.97;90.25
56894;BME280;43392;50.078;13.704;2023-01-27T06:25:12;97223.72;;;-0.99;90.33
56894;BME280;43392;50.078;13.704;2023-01-27T06:27:38;97220.31;;;-1.00;90.42
56894;BME280;43392;50.078;13.704;2023-01-27T06:30:06;97224.13;;;-1.02;89.93
56894;BME280;43392;50.078;13.704;2023-01-27T06:32:34;97231.00;;;-1.01;89.81
56894;BME280;43392;50.078;13.704;2023-01-27T06:35:01;97233.03;;;-1.03;90.14
56894;BME280;43392;50.078;13.704;2023-01-27T06:37:27;97234.06;;;-1.04;89.92
56894;BME280;43392;50.078;13.704;2023-01-27T06:39:54;97228.78;;;-1.04;89.69
56894;BME280;43392;50.078;13.704;2023-01-27T06:42:22;97232.78;;;-1.08;89.89
56894;BME280;43392;50.078;13.704;2023-01-27T06:44:48;97240.50;;;-1.07;89.72
56894;BME280;43392;50.078;13.704;2023-01-27T06:47:15;97234.84;;;-1.04;90.19
56894;BME280;43392;50.078;13.704;2023-01-27T06:49:41;97237.47;;;-1.04;89.94
56894;BME280;43392;50.078;13.704;2023-01-27T06:52:08;97241.13;;;-1.05;89.56
56894;BME280;43392;50.078;13.704;2023-01-27T06:54:34;97250.63;;;-1.04;89.67
56894;BME280;43392;50.078;13.704;2023-01-27T06:57:01;97250.63;;;-1.04;89.63
56894;BME280;43392;50.078;13.704;2023-01-27T06:59:29;97250.84;;;-1.05;90.04
56894;BME280;43392;50.078;13.704;2023-01-27T07:01:55;97252.84;;;-1.07;89.70
56894;BME280;43392;50.078;13.704;2023-01-27T07:04:22;97255.47;;;-1.07;90.02
56894;BME280;43392;50.078;13.704;2023-01-27T07:06:49;97249.63;;;-1.09;89.66
56894;BME280;43392;50.078;13.704;2023-01-27T07:09:15;97251.81;;;-1.13;89.53
56894;BME280;43392;50.078;13.704;2023-01-27T07:11:42;97256.47;;;-1.15;89.47
56894;BME280;43392;50.078;13.704;2023-01-27T07:14:09;97250.16;;;-1.20;89.68
56894;BME280;43392;50.078;13.704;2023-01-27T07:16:37;97255.59;;;-1.22;89.51
56894;BME280;43392;50.078;13.704;2023-01-27T07:19:03;97244.66;;;-1.25;89.82
56894;BME280;43392;50.078;13.704;2023-01-27T07:21:30;97260.03;;;-1.29;90.00
56894;BME280;43392;50.078;13.704;2023-01-27T07:23:56;97260.63;;;-1.27;89.70
56894;BME280;43392;50.078;13.704;2023-01-27T07:26:23;97256.81;;;-1.24;89.74
56894;BME280;43392;50.078;13.704;2023-01-27T07:28:49;97261.69;;;-1.21;89.81
56894;BME280;43392;50.078;13.704;2023-01-27T07:31:16;97249.97;;;-1.19;89.58
56894;BME280;43392;50.078;13.704;2023-01-27T07:33:44;97260.91;;;-1.15;89.53
56894;BME280;43392;50.078;13.704;2023-01-27T07:36:10;97257.06;;;-1.13;89.45
56894;BME280;43392;50.078;13.704;2023-01-27T07:38:37;97257.69;;;-1.11;89.45
56894;BME280;43392;50.078;13.704;2023-01-27T07:41:04;97257.50;;;-1.09;89.81
56894;BME280;43392;50.078;13.704;2023-01-27T07:43:31;97269.63;;;-1.08;89.72
56894;BME280;43392;50.078;13.704;2023-01-27T07:45:58;97270.84;;;-1.11;89.19
56894;BME280;43392;50.078;13.704;2023-01-27T07:48:25;97269.47;;;-1.07;89.22
56894;BME280;43392;50.078;13.704;2023-01-27T07:50:53;97270.47;;;-1.01;89.06
56894;BME280;43392;50.078;13.704;2023-01-27T07:53:19;97270.72;;;-0.96;89.41
56894;BME280;43392;50.078;13.704;2023-01-27T07:55:46;97258.16;;;-0.94;89.31
56894;BME280;43392;50.078;13.704;2023-01-27T07:58:12;97269.94;;;-0.90;89.45
56894;BME280;43392;50.078;13.704;2023-01-27T08:00:39;97265.50;;;-0.83;89.31
56894;BME280;43392;50.078;13.704;2023-01-27T08:03:06;97265.31;;;-0.82;88.78
56894;BME280;43392;50.078;13.704;2023-01-27T08:05:33;97264.09;;;-0.79;88.37
56894;BME280;43392;50.078;13.704;2023-01-27T08:08:04;97260.25;;;-0.77;88.78
56894;BME280;43392;50.078;13.704;2023-01-27T08:10:31;97263.13;;;-0.72;89.10
56894;BME280;43392;50.078;13.704;2023-01-27T08:12:57;97265.38;;;-0.69;88.54
56894;BME280;43392;50.078;13.704;2023-01-27T08:15:24;97263.13;;;-0.65;88.46
56894;BME280;43392;50.078;13.704;2023-01-27T08:17:54;97260.09;;;-0.69;88.20
56894;BME280;43392;50.078;13.704;2023-01-27T08:20:21;97260.69;;;-0.73;88.70
56894;BME280;43392;50.078;13.704;2023-01-27T08:22:48;97269.38;;;-0.73;88.04
56894;BME280;43392;50.078;13.704;2023-01-27T08:25:16;97268.59;;;-0.73;88.13
56894;BME280;43392;50.078;13.704;2023-01-27T08:27:42;97265.31;;;-0.75;88.24
56894;BME280;43392;50.078;13.704;2023-01-27T08:30:10;97271.22;;;-0.73;88.58
56894;BME280;43392;50.078;13.704;2023-01-27T08:32:37;97271.84;;;-0.71;88.45
56894;BME280;43392;50.078;13.704;2023-01-27T08:35:04;97275.09;;;-0.69;88.36
56894;BME280;43392;50.078;13.704;2023-01-27T08:37:30;97268.59;;;-0.73;87.94
56894;BME280;43392;50.078;13.704;2023-01-27T08:39:57;97278.50;;;-0.75;88.23
56894;BME280;43392;50.078;13.704;2023-01-27T08:42:25;97274.03;;;-0.81;87.81
56894;BME280;43392;50.078;13.704;2023-01-27T08:44:51;97274.41;;;-0.84;88.03
56894;BME280;43392;50.078;13.704;2023-01-27T08:47:18;97278.06;;;-0.85;88.30
56894;BME280;43392;50.078;13.704;2023-01-27T08:49:44;97263.88;;;-0.84;88.33
56894;BME280;43392;50.078;13.704;2023-01-27T08:52:12;97267.09;;;-0.89;88.10
56894;BME280;43392;50.078;13.704;2023-01-27T08:54:38;97271.75;;;-0.91;87.65
56894;BME280;43392;50.078;13.704;2023-01-27T08:57:05;97276.03;;;-0.90;87.85
56894;BME280;43392;50.078;13.704;2023-01-27T08:59:33;97272.75;;;-0.92;87.58
56894;BME280;43392;50.078;13.704;2023-01-27T09:01:59;97276.78;;;-0.96;87.50
56894;BME280;43392;50.078;13.704;2023-01-27T09:04:26;97280.84;;;-0.93;87.36
56894;BME280;43392;50.078;13.704;2023-01-27T09:06:55;97271.56;;;-0.89;87.69
56894;BME280;43392;50.078;13.704;2023-01-27T09:09:21;97286.97;;;-0.86;87.56
56894;BME280;43392;50.078;13.704;2023-01-27T09:11:48;97282.69;;;-0.87;87.15
56894;BME280;43392;50.078;13.704;2023-01-27T09:14:14;97287.97;;;-0.87;87.22
56894;BME280;43392;50.078;13.704;2023-01-27T09:16:42;97291.03;;;-0.84;86.65
56894;BME280;43392;50.078;13.704;2023-01-27T09:19:09;97294.09;;;-0.80;86.92
56894;BME280;43392;50.078;13.704;2023-01-27T09:21:36;97290.63;;;-0.81;86.77
56894;BME280;43392;50.078;13.704;2023-01-27T09:24:02;97301.56;;;-0.84;86.20
56894;BME280;43392;50.078;13.704;2023-01-27T09:26:29;97298.47;;;-0.87;86.41
56894;BME280;43392;50.078;13.704;2023-01-27T09:28:55;97298.47;;;-0.87;86.33
56894;BME280;43392;50.078;13.704;2023-01-27T09:31:22;97302.75;;;-0.86;86.51
56894;BME280;43392;50.078;13.704;2023-01-27T09:33:50;97308.25;;;-0.81;85.98
56894;BME280;43392;50.078;13.704;2023-01-27T09:36:18;97310.88;;;-0.81;86.25
56894;BME280;43392;50.078;13.704;2023-01-27T09:38:48;97308.63;;;-0.84;86.29
56894;BME280;43392;50.078;13.704;2023-01-27T09:41:35;97304.56;;;-0.87;85.94
56894;BME280;43392;50.078;13.704;2023-01-27T09:44:36;97311.03;;;-0.89;85.91
56894;BME280;43392;50.078;13.704;2023-01-27T09:47:24;97313.91;;;-0.84;86.00
56894;BME280;43392;50.078;13.704;2023-01-27T09:50:22;97304.19;;;-0.84;86.02
56894;BME280;43392;50.078;13.704;2023-01-27T09:53:09;97316.00;;;-0.73;85.72
56894;BME280;43392;50.078;13.704;2023-01-27T09:55:45;97311.13;;;-0.70;85.93
56894;BME280;43392;50.078;13.704;2023-01-27T09:58:23;97317.81;;;-0.67;85.40
56894;BME280;43392;50.078;13.704;2023-01-27T10:00:59;97311.13;;;-0.70;84.99
56894;BME280;43392;50.078;13.704;2023-01-27T10:03:44;97311.13;;;-0.70;84.92
56894;BME280;43392;50.078;13.704;2023-01-27T10:06:36;97308.47;;;-0.76;85.04
56894;BME280;43392;50.078;13.704;2023-01-27T10:09:29;97309.44;;;-0.84;84.89
56894;BME280;43392;50.078;13.704;2023-01-27T10:12:10;97313.72;;;-0.83;85.89
56894;BME280;43392;50.078;13.704;2023-01-27T10:14:44;97307.97;;;-0.45;86.37
56894;BME280;43392;50.078;13.704;2023-01-27T10:17:25;97304.13;;;-0.49;85.12
56894;BME280;43392;50.078;13.704;2023-01-27T10:20:07;97310.53;;;-0.65;84.75
56894;BME280;43392;50.078;13.704;2023-01-27T10:22:44;97301.16;;;-0.81;85.68
56894;BME280;43392;50.078;13.704;2023-01-27T10:25:22;97303.75;;;-0.87;85.80
56894;BME280;43392;50.078;13.704;2023-01-27T10:27:54;97299.28;;;-0.93;85.51
56894;BME280;43392;50.078;13.704;2023-01-27T10:30:27;97308.00;;;-0.93;86.16
56894;BME280;43392;50.078;13.704;2023-01-27T10:33:03;97305.38;;;-0.86;86.01
56894;BME280;43392;50.078;13.704;2023-01-27T10:35:42;97317.78;;;-0.80;86.19
56894;BME280;43392;50.078;13.704;2023-01-27T10:38:31;97325.47;;;-0.79;85.79
56894;BME280;43392;50.078;13.704;2023-01-27T10:41:07;97324.44;;;-0.84;85.52
56894;BME280;43392;50.078;13.704;2023-01-27T10:43:43;97319.38;;;-0.86;85.63
56894;BME280;43392;50.078;13.704;2023-01-27T10:46:24;97325.00;;;-0.89;85.19
56894;BME280;43392;50.078;13.704;2023-01-27T10:49:00;97322.19;;;-0.87;85.27
56894;BME280;43392;50.078;13.704;2023-01-27T10:51:33;97327.44;;;-0.87;85.34
56894;BME280;43392;50.078;13.704;2023-01-27T10:54:07;97322.19;;;-0.87;85.31
56894;BME280;43392;50.078;13.704;2023-01-27T10:56:39;97322.81;;;-0.85;85.66
56894;BME280;43392;50.078;13.704;2023-01-27T10:59:13;97319.16;;;-0.84;86.09
56894;BME280;43392;50.078;13.704;2023-01-27T11:01:46;97315.31;;;-0.88;85.85
56894;BME280;43392;50.078;13.704;2023-01-27T11:04:20;97324.19;;;-0.89;86.04
56894;BME280;43392;50.078;13.704;2023-01-27T11:06:51;97330.06;;;-0.87;85.72
56894;BME280;43392;50.078;13.704;2023-01-27T11:09:25;97320.53;;;-0.95;85.32
56894;BME280;43392;50.078;13.704;2023-01-27T11:11:56;97318.66;;;-1.01;85.72
56894;BME280;43392;50.078;13.704;2023-01-27T11:14:25;97315.28;;;-0.95;86.13
56894;BME280;43392;50.078;13.704;2023-01-27T11:16:58;97319.34;;;-0.92;85.57
56894;BME280;43392;50.078;13.704;2023-01-27T11:19:35;97316.06;;;-0.94;85.66
56894;BME280;43392;50.078;13.704;2023-01-27T11:22:05;97308.81;;;-0.92;85.49
56894;BME280;43392;50.078;13.704;2023-01-27T11:24:44;97318.56;;;-0.86;85.77
56894;BME280;43392;50.078;13.704;2023-01-27T11:27:18;97313.66;;;-0.89;85.55
56894;BME280;43392;50.078;13.704;2023-01-27T11:29:53;97312.66;;;-0.95;85.75
56894;BME280;43392;50.078;13.704;2023-01-27T11:32:32;97305.16;;;-0.91;85.67
56894;BME280;43392;50.078;13.704;2023-01-27T11:35:03;97311.25;;;-0.91;85.93
56894;BME280;43392;50.078;13.704;2023-01-27T11:37:34;97299.88;;;-0.91;85.57
56894;BME280;43392;50.078;13.704;2023-01-27T11:40:03;97299.50;;;-0.88;85.59
56894;BME280;43392;50.078;13.704;2023-01-27T11:42:38;97297.47;;;-0.93;85.67
56894;BME280;43392;50.078;13.704;2023-01-27T11:45:10;97296.22;;;-0.97;85.34
56894;BME280;43392;50.078;13.704;2023-01-27T11:47:39;97305.13;;;-0.98;86.12
56894;BME280;43392;50.078;13.704;2023-01-27T11:50:12;97293.19;;;-0.94;86.26
56894;BME280;43392;50.078;13.704;2023-01-27T11:52:40;97305.16;;;-0.91;86.31
56894;BME280;43392;50.078;13.704;2023-01-27T11:55:15;97305.78;;;-0.89;86.21
56894;BME280;43392;50.078;13.704;2023-01-27T11:57:45;97295.47;;;-0.84;86.15
56894;BME280;43392;50.078;13.704;2023-01-27T12:00:20;97298.53;;;-0.81;86.22
56894;BME280;43392;50.078;13.704;2023-01-27T12:02:52;97292.06;;;-0.78;85.96
56894;BME280;43392;50.078;13.704;2023-01-27T12:05:24;97286.22;;;-0.74;86.17
56894;BME280;43392;50.078;13.704;2023-01-27T12:07:55;97287.63;;;-0.71;86.00
56894;BME280;43392;50.078;13.704;2023-01-27T12:10:29;97285.81;;;-0.71;86.05
56894;BME280;43392;50.078;13.704;2023-01-27T12:12:59;97283.19;;;-0.71;86.02
56894;BME280;43392;50.078;13.704;2023-01-27T12:15:27;97283.81;;;-0.69;86.22
56894;BME280;43392;50.078;13.704;2023-01-27T12:17:55;97278.94;;;-0.65;86.21
56894;BME280;43392;50.078;13.704;2023-01-27T12:20:34;97276.13;;;-0.63;86.25
56894;BME280;43392;50.078;13.704;2023-01-27T12:23:13;97281.19;;;-0.62;85.88
56894;BME280;43392;50.078;13.704;2023-01-27T12:25:45;97275.72;;;-0.60;86.05
56894;BME280;43392;50.078;13.704;2023-01-27T12:28:21;97275.31;;;-0.64;85.83
56894;BME280;43392;50.078;13.704;2023-01-27T12:30:51;97283.41;;;-0.65;86.15
56894;BME280;43392;50.078;13.704;2023-01-27T12:33:22;97282.78;;;-0.68;86.62
56894;BME280;43392;50.078;13.704;2023-01-27T12:35:50;97281.56;;;-0.72;86.80
56894;BME280;43392;50.078;13.704;2023-01-27T12:38:19;97282.00;;;-0.68;86.72
56894;BME280;43392;50.078;13.704;2023-01-27T12:40:58;97273.88;;;-0.67;87.13
56894;BME280;43392;50.078;13.704;2023-01-27T12:43:26;97273.44;;;-0.70;86.59
56894;BME280;43392;50.078;13.704;2023-01-27T12:46:07;97276.09;;;-0.70;86.68
56894;BME280;43392;50.078;13.704;2023-01-27T12:48:46;97276.09;;;-0.70;86.75
56894;BME280;43392;50.078;13.704;2023-01-27T12:51:16;97270.03;;;-0.71;86.97
56894;BME280;43392;50.078;13.704;2023-01-27T12:53:43;97268.81;;;-0.68;86.72
56894;BME280;43392;50.078;13.704;2023-01-27T12:56:12;97261.16;;;-0.63;86.77
56894;BME280;43392;50.078;13.704;2023-01-27T12:58:42;97269.25;;;-0.58;86.96
56894;BME280;43392;50.078;13.704;2023-01-27T13:01:24;97270.25;;;-0.59;86.82
56894;BME280;43392;50.078;13.704;2023-01-27T13:03:54;97266.00;;;-0.60;87.20